createdAt,value
2022-08-09T00:02:20.700Z,17.3
2022-08-09T00:04:34.935Z,17.3
2022-08-09T00:06:22.924Z,17.3
2022-08-09T00:08:31.899Z,17.3
2022-08-09T00:10:11.802Z,17.3
2022-08-09T00:12:22.819Z,17.2
2022-08-09T00:14:21.692Z,17.2
2022-08-09T00:20:07.345Z,17
2022-08-09T00:22:04.972Z,17.1
2022-08-09T00:24:02.597Z,17.1
2022-08-09T00:26:08.155Z,17
2022-08-09T00:28:05.805Z,17
2022-08-09T00:30:25.661Z,16.9
2022-08-09T00:35:56.324Z,16.9
2022-08-09T00:37:53.978Z,16.8
2022-08-09T00:40:09.115Z,16.8
2022-08-09T00:44:13.720Z,16.8
2022-08-09T00:44:25.190Z,16.8
2022-08-09T00:46:57.818Z,16.7
2022-08-09T00:50:52.345Z,16.6
2022-08-09T00:52:56.106Z,16.7
2022-08-09T00:58:49.240Z,16.6
2022-08-09T01:00:46.722Z,16.6
2022-08-09T01:04:41.956Z,16.5
2022-08-09T01:06:54.819Z,16.5
2022-08-09T01:08:48.776Z,16.5
2022-08-09T01:10:42.825Z,16.4
2022-08-09T01:12:40.462Z,16.5
2022-08-09T01:14:38.123Z,16.5
2022-08-09T01:16:35.830Z,16.4
2022-08-09T01:18:33.378Z,16.5
2022-08-09T01:20:38.990Z,16.3
2022-08-09T01:22:36.636Z,16.5
2022-08-09T01:28:29.559Z,16.3
2022-08-09T01:30:35.296Z,16.3
2022-08-09T01:32:31.528Z,16.3
2022-08-09T01:34:30.394Z,16.4
2022-08-09T01:36:28.021Z,16.4
2022-08-09T01:38:25.650Z,16.2
2022-08-09T01:42:46.267Z,16.3
2022-08-09T01:46:49.450Z,16.1
2022-08-09T01:48:47.152Z,16.1
2022-08-09T01:50:48.096Z,16.1
2022-08-09T01:52:43.341Z,16.2
2022-08-09T01:54:40.124Z,16.2
2022-08-09T01:56:37.740Z,16.2
2022-08-09T01:58:35.404Z,16.1
2022-08-09T02:00:40.975Z,16.1
2022-08-09T02:02:38.630Z,16.2
2022-08-09T02:04:36.276Z,16.2
2022-08-09T02:18:27.701Z,16
2022-08-09T02:20:32.499Z,16
2022-08-09T02:26:24.945Z,15.8
2022-08-09T02:28:24.113Z,15.8
2022-08-09T02:30:21.532Z,15.8
2022-08-09T02:32:19.187Z,15.8
2022-08-09T02:35:23.097Z,15.8
2022-08-09T02:37:17.265Z,15.7
2022-08-09T02:39:33.284Z,15.8
2022-08-09T02:43:21.046Z,15.6
2022-08-09T02:45:15.761Z,15.7
2022-08-09T02:51:08.730Z,15.7
2022-08-09T02:53:06.367Z,15.8
2022-08-09T02:55:20.324Z,15.6
2022-08-09T02:59:08.771Z,15.6
2022-08-09T03:06:59.759Z,15.6
2022-08-09T03:09:05.222Z,15.5
2022-08-09T03:14:58.179Z,15.6
2022-08-09T03:16:55.815Z,15.5
2022-08-09T03:18:53.472Z,15.6
2022-08-09T03:20:51.129Z,15.5
2022-08-09T03:22:58.312Z,15.4
2022-08-09T03:25:16.183Z,15.5
2022-08-09T03:26:53.488Z,15.6
2022-08-09T03:27:55.511Z,15.5
2022-08-09T03:33:53.556Z,15.5
2022-08-09T03:36:16.488Z,15.4
2022-08-09T03:37:55.673Z,15.4
2022-08-09T03:39:55.791Z,15.4
2022-08-09T03:41:48.765Z,15.4
2022-08-09T03:43:51.699Z,15.1
2022-08-09T03:46:04.475Z,15.1
2022-08-09T03:47:40.190Z,15.1
2022-08-09T03:49:58.163Z,15.1
2022-08-09T03:51:57.171Z,15.2
2022-08-09T03:53:40.086Z,15.2
2022-08-09T03:55:40.978Z,15.2
2022-08-09T03:57:44.613Z,15.1
2022-08-09T03:59:53.777Z,15.3
2022-08-09T04:01:30.743Z,15.3
2022-08-09T04:05:33.983Z,15.2
2022-08-09T04:07:33.895Z,15.1
2022-08-09T04:11:26.951Z,15.1
2022-08-09T04:13:45.116Z,15.1
2022-08-09T04:15:39.042Z,15.1
2022-08-09T04:19:30.405Z,15
2022-08-09T04:22:28.020Z,15.1
2022-08-09T04:28:33.102Z,14.9
2022-08-09T04:30:26.156Z,15
2022-08-09T04:34:31.722Z,15
2022-08-09T04:36:19.514Z,15
2022-08-09T04:38:15.132Z,15
2022-08-09T04:40:28.503Z,15
2022-08-09T04:42:10.448Z,15
2022-08-09T04:44:16.036Z,15.1
2022-08-09T04:50:08.971Z,15.1
2022-08-09T04:52:07.387Z,15.1
2022-08-09T04:56:01.960Z,15.1
2022-08-09T04:58:09.110Z,15.1
2022-08-09T05:00:05.195Z,15
2022-08-09T05:02:03.232Z,15.1
2022-08-09T05:04:00.644Z,15.2
2022-08-09T05:06:07.006Z,15.2
2022-08-09T05:07:55.840Z,15.2
2022-08-09T05:09:53.465Z,15.2
2022-08-09T05:11:59.050Z,15.1
2022-08-09T05:13:56.713Z,15.1
2022-08-09T05:15:56.802Z,15.3
2022-08-09T05:18:38.910Z,15.3
2022-08-09T05:20:14.999Z,15.3
2022-08-09T05:22:33.502Z,15.3
2022-08-09T05:24:18.233Z,15.3
2022-08-09T05:28:13.528Z,15.5
2022-08-09T05:30:11.199Z,15.5
2022-08-09T05:32:08.817Z,15.4
2022-08-09T05:34:06.485Z,15.5
2022-08-09T05:36:04.153Z,15.5
2022-08-09T05:40:08.519Z,15.6
2022-08-09T05:42:04.989Z,15.6
2022-08-09T05:44:02.651Z,15.5
2022-08-09T05:46:00.302Z,15.6
2022-08-09T05:48:01.179Z,15.6
2022-08-09T05:50:29.830Z,15.8
2022-08-09T05:52:01.178Z,15.7
2022-08-09T05:55:56.457Z,15.7
2022-08-09T05:57:56.776Z,15.9
2022-08-09T05:59:51.716Z,15.8
2022-08-09T06:01:49.350Z,15.9
2022-08-09T06:03:54.776Z,15.9
2022-08-09T06:06:04.367Z,16.1
2022-08-09T06:08:05.391Z,16.2
2022-08-09T06:10:01.791Z,16.1
2022-08-09T06:10:50.618Z,16.1
2022-08-09T06:12:52.090Z,16.2
2022-08-09T06:14:45.936Z,16.2
2022-08-09T06:16:43.576Z,16.2
2022-08-09T06:18:49.168Z,16.2
2022-08-09T06:20:54.278Z,16.3
2022-08-09T06:22:45.735Z,16.3
2022-08-09T06:24:42.078Z,16.4
2022-08-09T06:26:39.708Z,16.6
2022-08-09T06:28:37.336Z,16.6
2022-08-09T06:30:34.981Z,16.6
2022-08-09T06:32:58.987Z,16.6
2022-08-09T06:34:38.194Z,16.6
2022-08-09T06:36:35.837Z,16.6
2022-08-09T06:40:31.195Z,16.8
2022-08-09T06:42:30.926Z,16.9
2022-08-09T06:44:26.536Z,16.8
2022-08-09T06:46:39.736Z,16.9
2022-08-09T06:48:30.430Z,17
2022-08-09T06:50:27.252Z,16.9
2022-08-09T06:52:29.311Z,17.1
2022-08-09T06:56:20.171Z,17.1
2022-08-09T07:00:47.244Z,17.3
2022-08-09T07:00:55.290Z,17.3
2022-08-09T07:02:21.081Z,17.4
2022-08-09T07:04:19.739Z,17.5
2022-08-09T07:05:21.459Z,17.6
2022-08-09T07:07:28.565Z,17.5
2022-08-09T07:13:28.219Z,17.8
2022-08-09T07:17:15.187Z,17.9
2022-08-09T07:21:10.452Z,18
2022-08-09T07:23:19.071Z,18.1
2022-08-09T07:25:09.670Z,18.2
2022-08-09T07:27:33.347Z,18.3
2022-08-09T07:29:13.319Z,18.4
2022-08-09T07:31:06.565Z,18.4
2022-08-09T07:33:12.538Z,18.5
2022-08-09T07:35:02.738Z,18.6
2022-08-09T07:36:59.471Z,18.6
2022-08-09T07:39:00.776Z,18.8
2022-08-09T07:41:11.822Z,18.8
2022-08-09T07:43:00.294Z,18.9
2022-08-09T07:45:01.518Z,19.1
2022-08-09T07:46:55.510Z,19.1
2022-08-09T07:52:48.354Z,19.3
2022-08-09T07:54:53.924Z,19.3
2022-08-09T08:00:02.968Z,19.5
2022-08-09T08:01:53.189Z,19.4
2022-08-09T08:03:47.131Z,19.4
2022-08-09T08:05:54.212Z,19.5
2022-08-09T08:08:43.362Z,19.7
2022-08-09T08:09:53.435Z,19.8
2022-08-09T08:12:10.306Z,19.7
2022-08-09T08:13:55.851Z,19.8
2022-08-09T08:15:40.715Z,20
2022-08-09T08:17:54.485Z,20.1
2022-08-09T08:19:35.910Z,20.3
2022-08-09T08:23:41.012Z,20.3
2022-08-09T08:25:44.114Z,20.4
2022-08-09T08:27:40.573Z,20.5
2022-08-09T08:29:39.256Z,20.4
2022-08-09T08:31:39.355Z,20.4
2022-08-09T08:33:27.041Z,20.4
2022-08-09T08:35:52.904Z,20.5
2022-08-09T08:37:41.441Z,20.6
2022-08-09T08:41:27.084Z,20.6
2022-08-09T08:43:24.444Z,20.7
2022-08-09T08:45:37.814Z,20.9
2022-08-09T08:47:19.588Z,20.7
2022-08-09T08:49:33.447Z,21
2022-08-09T08:51:23.052Z,21
2022-08-09T08:53:21.974Z,21
2022-08-09T08:55:43.522Z,21.1
2022-08-09T08:59:44.623Z,21.3
2022-08-09T09:05:59.970Z,21.7
2022-08-09T09:07:37.110Z,21.7
2022-08-09T09:09:50.235Z,21.5
2022-08-09T09:13:41.790Z,21.5
2022-08-09T09:15:35.205Z,21.7
2022-08-09T09:19:41.246Z,21.7
2022-08-09T09:21:27.861Z,21.7
2022-08-09T09:23:37.750Z,21.6
2022-08-09T09:26:03.807Z,21.7
2022-08-09T09:27:22.169Z,21.9
2022-08-09T09:29:26.069Z,21.9
2022-08-09T09:33:21.179Z,21.9
2022-08-09T09:35:18.727Z,22.1
2022-08-09T09:37:16.305Z,22.2
2022-08-09T09:43:16.930Z,22.1
2022-08-09T09:45:26.494Z,22.3
2022-08-09T09:47:12.037Z,22.3
2022-08-09T09:48:14.793Z,22.3
2022-08-09T09:50:17.564Z,22.3
2022-08-09T09:52:33.698Z,22.3
2022-08-09T09:54:17.102Z,22.3
2022-08-09T09:56:20.167Z,22.4
2022-08-09T09:58:15.551Z,22.5
2022-08-09T10:00:08.075Z,22.6
2022-08-09T10:02:05.635Z,22.5
2022-08-09T10:04:08.876Z,22.7
2022-08-09T10:06:04.675Z,22.5
2022-08-09T10:08:10.979Z,22.7
2022-08-09T10:10:03.792Z,22.6
2022-08-09T10:13:58.856Z,22.7
2022-08-09T10:16:55.091Z,22.8
2022-08-09T10:17:56.438Z,22.8
2022-08-09T10:19:53.053Z,22.8
2022-08-09T10:21:49.062Z,22.9
2022-08-09T10:23:54.560Z,23.1
2022-08-09T10:27:56.954Z,23.4
2022-08-09T10:30:41.929Z,23.3
2022-08-09T10:32:35.659Z,23.3
2022-08-09T10:35:39.791Z,23.7
2022-08-09T10:41:40.330Z,23.9
2022-08-09T10:42:43.066Z,23.8
2022-08-09T10:44:40.606Z,23.9
2022-08-09T10:46:52.599Z,23.7
2022-08-09T10:48:36.844Z,24.1
2022-08-09T10:50:41.181Z,24.2
2022-08-09T10:52:44.507Z,24.2
2022-08-09T10:54:36.259Z,24.6
2022-08-09T10:56:33.718Z,24.4
2022-08-09T10:58:31.259Z,24.4
2022-08-09T11:00:28.722Z,24.6
2022-08-09T11:03:15.302Z,24.9
2022-08-09T11:04:32.677Z,25
2022-08-09T11:06:29.209Z,25.3
2022-08-09T11:08:30.160Z,25.3
2022-08-09T11:10:29.308Z,25.3
2022-08-09T11:12:21.696Z,25.4
2022-08-09T11:14:19.172Z,25.6
2022-08-09T11:16:16.647Z,25.7
2022-08-09T11:18:22.149Z,26.2
2022-08-09T11:20:22.023Z,26.4
2022-08-09T11:22:21.546Z,26.4
2022-08-09T11:24:14.446Z,26
2022-08-09T11:28:30.782Z,26.1
2022-08-09T11:30:27.109Z,26.3
2022-08-09T11:34:09.544Z,26.2
2022-08-09T11:36:06.954Z,26.7
2022-08-09T11:37:18.043Z,26.5
2022-08-09T11:39:07.073Z,26.3
2022-08-09T11:41:04.401Z,26.5
2022-08-09T11:43:01.771Z,26.4
2022-08-09T11:45:07.205Z,26.6
2022-08-09T11:47:04.525Z,26.7
2022-08-09T11:49:05.012Z,26.7
2022-08-09T11:52:49.033Z,26.7
2022-08-09T11:54:53.872Z,27.5
2022-08-09T11:58:56.527Z,27.6
2022-08-09T12:00:53.837Z,27.6
2022-08-09T12:02:52.617Z,27.9
2022-08-09T12:04:48.445Z,27.6
2022-08-09T12:06:49.191Z,27.8
2022-08-09T12:08:42.996Z,28
2022-08-09T12:10:40.323Z,27.9
2022-08-09T12:12:45.483Z,28.3
2022-08-09T12:15:04.303Z,28
2022-08-09T12:16:40.269Z,27.9
2022-08-09T12:18:37.143Z,28.1
2022-08-09T12:20:34.378Z,28.2
2022-08-09T12:22:31.966Z,28.1
2022-08-09T12:24:28.783Z,28.2
2022-08-09T12:26:34.044Z,28.4
2022-08-09T12:29:14.955Z,28.3
2022-08-09T12:30:36.991Z,27.9
2022-08-09T12:32:51.474Z,28.5
2022-08-09T12:42:45.359Z,29.8
2022-08-09T12:46:39.651Z,29.4
2022-08-09T12:48:37.283Z,28.9
2022-08-09T12:50:33.881Z,28.9
2022-08-09T12:52:42.677Z,29.1
2022-08-09T12:56:48.361Z,29.4
2022-08-09T12:58:30.406Z,29.9
2022-08-09T13:00:27.504Z,30
2022-08-09T13:02:24.597Z,29.8
2022-08-09T13:04:37.580Z,29.8
2022-08-09T13:08:39.657Z,30.1
2022-08-09T13:10:20.962Z,30.7
2022-08-09T13:12:19.803Z,30.4
2022-08-09T13:14:41.065Z,30
2022-08-09T13:20:20.245Z,29.9
2022-08-09T13:22:36.730Z,30.1
2022-08-09T13:24:16.272Z,30.3
2022-08-09T13:25:13.733Z,30.5
2022-08-09T13:27:08.610Z,30.3
2022-08-09T13:29:04.739Z,29.8
2022-08-09T13:32:15.193Z,30.3
2022-08-09T13:33:06.791Z,29.8
2022-08-09T13:35:03.746Z,29.9
2022-08-09T13:37:00.735Z,30.5
2022-08-09T13:39:00.963Z,30.4
2022-08-09T13:41:45.745Z,30.1
2022-08-09T13:42:51.678Z,30.1
2022-08-09T13:44:48.817Z,30
2022-08-09T13:47:25.355Z,30.5
2022-08-09T13:50:48.220Z,31
2022-08-09T13:52:44.456Z,31.5
2022-08-09T13:54:41.763Z,31.7
2022-08-09T13:56:39.694Z,30.9
2022-08-09T13:58:35.212Z,30.8
2022-08-09T14:00:46.707Z,31.2
2022-08-09T14:04:34.096Z,31.1
2022-08-09T14:06:31.723Z,31.6
2022-08-09T14:08:28.306Z,31.7
2022-08-09T14:10:37.671Z,32.2
2022-08-09T14:12:21.659Z,32.5
2022-08-09T14:14:29.862Z,33.3
2022-08-09T14:18:29.976Z,33.1
2022-08-09T14:19:24.502Z,33
2022-08-09T14:21:22.626Z,33.3
2022-08-09T14:25:15.063Z,33.2
2022-08-09T14:27:20.754Z,33.1
2022-08-09T14:29:25.793Z,33
2022-08-09T14:33:11.330Z,34.6
2022-08-09T14:37:06.223Z,33.8
2022-08-09T14:39:03.377Z,34.2
2022-08-09T14:41:35.254Z,33.8
2022-08-09T14:43:02.994Z,33.1
2022-08-09T14:45:00.831Z,31.7
2022-08-09T14:47:14.761Z,30.6
2022-08-09T14:48:53.585Z,29.9
2022-08-09T14:50:50.497Z,29.5
2022-08-09T14:54:52.474Z,29.1
2022-08-09T14:58:46.498Z,28.9
2022-08-09T15:00:48.451Z,28.8
2022-08-09T15:02:40.632Z,28.7
2022-08-09T15:04:37.724Z,28.3
2022-08-09T15:06:34.863Z,29
2022-08-09T15:08:40.120Z,30.1
2022-08-09T15:10:37.236Z,30.1
2022-08-09T15:12:34.616Z,29.3
2022-08-09T15:13:48.110Z,28.7
2022-08-09T15:15:38.922Z,28.5
2022-08-09T15:17:31.449Z,28.1
2022-08-09T15:19:28.699Z,28.1
2022-08-09T15:21:56.426Z,28.1
2022-08-09T15:24:00.707Z,28.1
2022-08-09T15:31:20.402Z,27.8
2022-08-09T15:33:30.113Z,27.7
2022-08-09T15:35:44.363Z,27.7
2022-08-09T15:37:20.382Z,27.7
2022-08-09T15:41:22.105Z,28
2022-08-09T15:43:13.544Z,27.9
2022-08-09T15:45:09.833Z,27.7
2022-08-09T15:47:07.111Z,27.8
2022-08-09T15:49:22.949Z,27.7
2022-08-09T15:51:30.181Z,27.6
2022-08-09T15:54:02.267Z,27.6
2022-08-09T15:55:04.622Z,27.5
2022-08-09T15:57:01.962Z,27.3
2022-08-09T16:00:56.975Z,27.6
2022-08-09T16:03:02.095Z,27.4
2022-08-09T16:05:03.959Z,27.5
2022-08-09T16:06:56.879Z,27.3
2022-08-09T16:09:51.371Z,27.2
2022-08-09T16:11:17.408Z,27.1
2022-08-09T16:13:20.855Z,27.2
2022-08-09T16:16:04.628Z,27.2
2022-08-09T16:17:17.589Z,27.2
2022-08-09T16:19:15.006Z,27.2
2022-08-09T16:21:12.487Z,27.1
2022-08-09T16:23:09.791Z,27
2022-08-09T16:25:07.197Z,27.2
2022-08-09T16:27:05.059Z,27.2
2022-08-09T16:29:11.534Z,27.1
2022-08-09T16:31:16.009Z,27
2022-08-09T16:33:04.859Z,27
2022-08-09T16:35:02.655Z,26.9
2022-08-09T16:36:59.703Z,26.9
2022-08-09T16:38:57.121Z,26.8
2022-08-09T16:40:55.556Z,26.9
2022-08-09T16:42:59.971Z,26.9
2022-08-09T16:44:57.393Z,26.9
2022-08-09T16:47:04.148Z,26.7
2022-08-09T16:49:08.386Z,26.7
2022-08-09T16:50:59.051Z,26.8
2022-08-09T16:52:47.110Z,26.8
2022-08-09T16:54:44.546Z,26.7
2022-08-09T16:56:50.212Z,26.6
2022-08-09T17:00:46.475Z,26.6
2022-08-09T17:01:51.255Z,26.5
2022-08-09T17:03:44.987Z,26.5
2022-08-09T17:06:07.196Z,26.5
2022-08-09T17:08:44.642Z,26.4
2022-08-09T17:09:47.546Z,26.3
2022-08-09T17:11:42.770Z,26.4
2022-08-09T17:17:50.914Z,26.2
2022-08-09T17:19:46.386Z,26.2
2022-08-09T17:24:05.761Z,26.3
2022-08-09T17:27:30.372Z,26.1
2022-08-09T17:31:25.271Z,26.1
2022-08-09T17:33:23.268Z,26.1
2022-08-09T17:35:20.185Z,26
2022-08-09T17:37:25.634Z,26
2022-08-09T17:39:24.852Z,26
2022-08-09T17:41:20.564Z,25.9
2022-08-09T17:43:34.641Z,25.9
2022-08-09T17:45:16.120Z,25.8
2022-08-09T17:47:12.956Z,25.8
2022-08-09T17:49:10.410Z,25.7
2022-08-09T17:51:19.259Z,25.6
2022-08-09T17:53:21.789Z,25.6
2022-08-09T17:55:10.798Z,25.7
2022-08-09T17:56:13.508Z,25.7
2022-08-09T17:58:10.984Z,25.6
2022-08-09T18:00:08.513Z,25.7
2022-08-09T18:02:11.308Z,25.4
2022-08-09T18:04:11.373Z,25.5
2022-08-09T18:06:14.924Z,25.5
2022-08-09T18:08:06.314Z,25.4
2022-08-09T18:10:04.979Z,25.3
2022-08-09T18:12:14.544Z,25.2
2022-08-09T18:14:03.528Z,25.2
2022-08-09T18:16:07.917Z,25.2
2022-08-09T18:18:07.877Z,25.3
2022-08-09T18:20:55.834Z,25.3
2022-08-09T18:21:56.676Z,25.1
2022-08-09T18:28:04.543Z,25
2022-08-09T18:30:38.915Z,25
2022-08-09T18:31:56.374Z,25
2022-08-09T18:35:58.230Z,24.9
2022-08-09T18:37:48.554Z,24.8
2022-08-09T18:39:42.132Z,24.7
2022-08-09T18:41:42.215Z,24.6
2022-08-09T18:43:37.038Z,24.7
2022-08-09T18:46:48.660Z,24.5
2022-08-09T18:47:39.995Z,24.5
2022-08-09T18:49:41.493Z,24.5
2022-08-09T18:52:38.023Z,24.5
2022-08-09T18:56:32.726Z,24.5
2022-08-09T18:58:38.926Z,24.2
2022-08-09T19:00:35.701Z,24.3
2022-08-09T19:02:33.302Z,24.3
2022-08-09T19:04:34.959Z,24.2
2022-08-09T19:06:28.253Z,24.2
2022-08-09T19:08:27.946Z,24
2022-08-09T19:10:23.282Z,24
2022-08-09T19:12:28.779Z,23.8
2022-08-09T19:14:29.151Z,23.9
2022-08-09T19:18:33.778Z,23.7
2022-08-09T19:20:18.849Z,23.7
2022-08-09T19:22:16.879Z,23.6
2022-08-09T19:24:38.413Z,23.6
2022-08-09T19:26:19.363Z,23.5
2022-08-09T19:28:16.881Z,23.5
2022-08-09T19:30:21.589Z,23.4
2022-08-09T19:32:11.902Z,23.4
2022-08-09T19:34:09.418Z,23.2
2022-08-09T19:36:13.294Z,23.2
2022-08-09T19:40:10.084Z,23.1
2022-08-09T19:42:07.538Z,23
2022-08-09T19:49:01.422Z,22.8
2022-08-09T19:50:49.743Z,22.7
2022-08-09T19:52:22.262Z,22.7
2022-08-09T19:56:17.344Z,22.6
2022-08-09T19:58:16.576Z,22.6
2022-08-09T20:00:13.991Z,22.7
2022-08-09T20:06:23.453Z,22.4
2022-08-09T20:08:12.089Z,22.4
2022-08-09T20:10:17.298Z,22.3
2022-08-09T20:12:07.192Z,22.2
2022-08-09T20:14:04.746Z,22.3
2022-08-09T20:16:34.395Z,22.3
2022-08-09T20:17:59.855Z,22.2
2022-08-09T20:20:05.353Z,22.1
2022-08-09T20:22:02.923Z,22.1
2022-08-09T20:24:00.478Z,21.9
2022-08-09T20:25:58.052Z,21.9
2022-08-09T20:35:53.790Z,21.6
2022-08-09T20:38:20.786Z,21.4
2022-08-09T20:39:28.834Z,21.4
2022-08-09T20:40:51.734Z,21.3
2022-08-09T20:46:52.315Z,21.1
2022-08-09T20:50:49.275Z,21.1
2022-08-09T20:52:45.259Z,21.1
2022-08-09T20:54:51.873Z,21.1
2022-08-09T20:58:38.116Z,21
2022-08-09T21:00:45.227Z,20.9
2022-08-09T21:02:40.942Z,20.7
2022-08-09T21:05:57.042Z,20.8
2022-08-09T21:08:36.703Z,20.7
2022-08-09T21:10:31.190Z,20.8
2022-08-09T21:14:38.316Z,20.5
2022-08-09T21:16:31.919Z,20.5
2022-08-09T21:18:30.813Z,20.6
2022-08-09T21:20:30.378Z,20.4
2022-08-09T21:22:39.073Z,20.4
2022-08-09T21:24:28.500Z,20.4
2022-08-09T21:26:19.870Z,20.3
2022-08-09T21:28:33.762Z,20.3
2022-08-09T21:30:23.010Z,20.2
2022-08-09T21:32:20.624Z,20.2
2022-08-09T21:33:23.506Z,20.2
2022-08-09T21:35:21.650Z,20.2
2022-08-09T21:39:17.162Z,20
2022-08-09T21:43:21.585Z,20
2022-08-09T21:45:17.570Z,20.1
2022-08-09T21:47:18.405Z,19.9
2022-08-09T21:49:12.116Z,19.9
2022-08-09T21:51:13.964Z,19.9
2022-08-09T21:53:15.592Z,19.8
2022-08-09T21:55:12.967Z,19.7
2022-08-09T21:57:37.170Z,19.8
2022-08-09T21:59:08.095Z,19.7
2022-08-09T22:03:04.907Z,19.5
2022-08-09T22:05:04.329Z,19.5
2022-08-09T22:07:01.921Z,19.6
2022-08-09T22:12:04.368Z,19.5
2022-08-09T22:12:59.362Z,19.4
2022-08-09T22:14:56.993Z,19.4
2022-08-09T22:16:54.601Z,19.5
2022-08-09T22:18:54.284Z,19.3
2022-08-09T22:20:49.801Z,19.2
2022-08-09T22:22:55.359Z,19.3
2022-08-09T22:24:53.649Z,19.2
2022-08-09T22:27:53.385Z,19.2
2022-08-09T22:33:55.281Z,19.2
2022-08-09T22:36:02.366Z,19
2022-08-09T22:37:49.949Z,19
2022-08-09T22:39:58.659Z,19.1
2022-08-09T22:41:45.169Z,19
2022-08-09T22:44:01.201Z,19.1
2022-08-09T22:48:10.308Z,19.1
2022-08-09T22:48:11.844Z,18.9
2022-08-09T22:49:43.617Z,18.9
2022-08-09T22:51:43.478Z,18.9
2022-08-09T22:53:58.679Z,18.8
2022-08-09T22:55:39.706Z,18.8
2022-08-09T22:57:35.868Z,18.7
2022-08-09T23:04:04.112Z,18.6
2022-08-09T23:05:32.544Z,18.6
2022-08-09T23:08:21.408Z,18.6
2022-08-09T23:09:27.778Z,18.5
2022-08-09T23:13:23.012Z,18.5
2022-08-09T23:15:20.627Z,18.5
2022-08-09T23:17:26.236Z,18.6
2022-08-09T23:19:23.828Z,18.7
2022-08-09T23:28:00.594Z,18.6
2022-08-09T23:29:49.195Z,18.6
2022-08-09T23:31:49.223Z,18.5
2022-08-09T23:33:44.498Z,18.5
2022-08-09T23:36:06.641Z,18.5
2022-08-09T23:45:38.644Z,18.3
2022-08-09T23:47:36.042Z,18.3
2022-08-09T23:49:33.506Z,18.2
2022-08-09T23:55:26.429Z,18.2
2022-08-09T23:57:32.010Z,18.1
